CYYH

Taloyoak Airport

Taloyoak, Canada
METAR CYYH 231000Z 19015KT 4SM -SN BR DRSN FEW012 SCT040 BKN170 M38/M43 A2959 RMK FG1SC1SC1AC2 VIS SE 2 FG SLP026
Observed Flight Rules
Feb-23 @ 10:00 UTC (33 minutes ago) Marginal Visual Flight Rules
Wind Visibility Clouds Conditions
190° at 15 knots 4 miles
  • Few at 1,200' AGL
  • Scattered at 4,000' AGL
  • Broken at 17,000' AGL
  • Light Snow
  • Mist
  • Low drifting
  • Snow
Temperatures Readings
Current -38°C / -36°F
Dewpoint -43°C / -45°F
Humidity 59%
Altimeter 29.59" Hg
Pressure 1002.6 hPa
Elevation 28
METAR CYYH 231000Z 19015KT 4SM -SN BR DRSN FEW012 SCT040 BKN170 M38/M43 A2959 RMK FG1SC1SC1AC2 VIS SE 2 FG SLP026
Observed Flight Rules
Feb-23 @ 10:00 UTC
(33 minutes ago)
MVFR
Wind Visibility
190° at 15 knots 4 miles
Clouds
  • Few at 1,200' AGL
  • Scattered at 4,000' AGL
  • Broken at 17,000' AGL
Conditions
  • Light Snow
  • Mist
  • Low drifting
  • Snow
Temperature Dewpoint
-38°C / -36°F -43°C / -45°F
Humidity Altimeter Pressure
59% 29.59" Hg 1002.6 hPa